sensor_id;sensor_type;location;lat;lon;timestamp;P1;durP1;ratioP1;P2;durP2;ratioP2
12921;SDS011;6528;48.086;16.282;2023-12-29T00:02:20;9.03;;;8.13;;
12921;SDS011;6528;48.086;16.282;2023-12-29T00:04:47;9.30;;;8.50;;
12921;SDS011;6528;48.086;16.282;2023-12-29T00:07:15;9.37;;;8.57;;
12921;SDS011;6528;48.086;16.282;2023-12-29T00:09:43;9.27;;;8.47;;
12921;SDS011;6528;48.086;16.282;2023-12-29T00:12:11;9.50;;;8.60;;
12921;SDS011;6528;48.086;16.282;2023-12-29T00:14:39;9.17;;;8.30;;
12921;SDS011;6528;48.086;16.282;2023-12-29T00:17:07;8.50;;;7.70;;
12921;SDS011;6528;48.086;16.282;2023-12-29T00:19:34;9.73;;;8.33;;
12921;SDS011;6528;48.086;16.282;2023-12-29T00:22:02;7.77;;;7.10;;
12921;SDS011;6528;48.086;16.282;2023-12-29T00:24:30;8.10;;;7.43;;
12921;SDS011;6528;48.086;16.282;2023-12-29T00:26:58;9.10;;;8.20;;
12921;SDS011;6528;48.086;16.282;2023-12-29T00:29:25;9.50;;;8.60;;
12921;SDS011;6528;48.086;16.282;2023-12-29T00:31:54;9.33;;;8.43;;
12921;SDS011;6528;48.086;16.282;2023-12-29T00:34:21;8.60;;;7.83;;
12921;SDS011;6528;48.086;16.282;2023-12-29T00:36:48;9.33;;;8.43;;
12921;SDS011;6528;48.086;16.282;2023-12-29T00:39:15;9.50;;;8.70;;
12921;SDS011;6528;48.086;16.282;2023-12-29T00:41:43;9.43;;;8.63;;
12921;SDS011;6528;48.086;16.282;2023-12-29T00:44:10;9.50;;;8.57;;
12921;SDS011;6528;48.086;16.282;2023-12-29T00:46:38;8.43;;;7.70;;
12921;SDS011;6528;48.086;16.282;2023-12-29T00:49:05;8.90;;;8.20;;
12921;SDS011;6528;48.086;16.282;2023-12-29T00:51:32;8.27;;;7.60;;
12921;SDS011;6528;48.086;16.282;2023-12-29T00:54:00;8.70;;;7.90;;
12921;SDS011;6528;48.086;16.282;2023-12-29T00:56:27;8.80;;;8.00;;
12921;SDS011;6528;48.086;16.282;2023-12-29T00:58:55;8.27;;;7.43;;
12921;SDS011;6528;48.086;16.282;2023-12-29T01:01:22;7.97;;;7.37;;
12921;SDS011;6528;48.086;16.282;2023-12-29T01:03:50;9.20;;;8.33;;
12921;SDS011;6528;48.086;16.282;2023-12-29T01:06:21;8.90;;;8.10;;
12921;SDS011;6528;48.086;16.282;2023-12-29T01:08:50;8.63;;;7.83;;
12921;SDS011;6528;48.086;16.282;2023-12-29T01:11:17;9.20;;;8.40;;
12921;SDS011;6528;48.086;16.282;2023-12-29T01:13:45;7.33;;;6.73;;
12921;SDS011;6528;48.086;16.282;2023-12-29T01:16:12;8.40;;;7.70;;
12921;SDS011;6528;48.086;16.282;2023-12-29T01:18:40;7.40;;;6.80;;
12921;SDS011;6528;48.086;16.282;2023-12-29T01:21:08;8.17;;;7.37;;
12921;SDS011;6528;48.086;16.282;2023-12-29T01:23:35;8.10;;;7.40;;
12921;SDS011;6528;48.086;16.282;2023-12-29T01:26:02;8.37;;;7.67;;
12921;SDS011;6528;48.086;16.282;2023-12-29T01:28:30;8.33;;;7.63;;
12921;SDS011;6528;48.086;16.282;2023-12-29T01:30:59;8.50;;;7.80;;
12921;SDS011;6528;48.086;16.282;2023-12-29T01:33:26;8.50;;;7.80;;
12921;SDS011;6528;48.086;16.282;2023-12-29T01:35:54;9.17;;;8.30;;
12921;SDS011;6528;48.086;16.282;2023-12-29T01:38:23;7.80;;;7.17;;
12921;SDS011;6528;48.086;16.282;2023-12-29T01:40:50;8.93;;;7.80;;
12921;SDS011;6528;48.086;16.282;2023-12-29T01:43:18;8.90;;;8.10;;
12921;SDS011;6528;48.086;16.282;2023-12-29T01:45:45;8.80;;;8.00;;
12921;SDS011;6528;48.086;16.282;2023-12-29T01:48:23;8.10;;;7.40;;
12921;SDS011;6528;48.086;16.282;2023-12-29T01:50:51;8.90;;;8.20;;
12921;SDS011;6528;48.086;16.282;2023-12-29T01:53:20;7.90;;;7.30;;
12921;SDS011;6528;48.086;16.282;2023-12-29T01:56:04;7.63;;;7.10;;
12921;SDS011;6528;48.086;16.282;2023-12-29T01:58:32;8.20;;;7.40;;
12921;SDS011;6528;48.086;16.282;2023-12-29T02:01:00;7.73;;;7.03;;
12921;SDS011;6528;48.086;16.282;2023-12-29T02:03:29;7.87;;;7.23;;
12921;SDS011;6528;48.086;16.282;2023-12-29T02:05:57;7.40;;;6.80;;
12921;SDS011;6528;48.086;16.282;2023-12-29T02:08:25;7.50;;;6.90;;
12921;SDS011;6528;48.086;16.282;2023-12-29T02:10:53;8.60;;;7.83;;
12921;SDS011;6528;48.086;16.282;2023-12-29T02:13:22;8.20;;;7.53;;
12921;SDS011;6528;48.086;16.282;2023-12-29T02:15:52;7.90;;;7.10;;
12921;SDS011;6528;48.086;16.282;2023-12-29T02:18:23;7.50;;;6.80;;
12921;SDS011;6528;48.086;16.282;2023-12-29T02:20:52;7.60;;;6.90;;
12921;SDS011;6528;48.086;16.282;2023-12-29T02:23:20;8.17;;;7.50;;
12921;SDS011;6528;48.086;16.282;2023-12-29T02:25:47;7.80;;;7.10;;
12921;SDS011;6528;48.086;16.282;2023-12-29T02:28:16;7.43;;;6.83;;
12921;SDS011;6528;48.086;16.282;2023-12-29T02:31:01;8.07;;;7.27;;
12921;SDS011;6528;48.086;16.282;2023-12-29T02:33:37;7.07;;;6.53;;
12921;SDS011;6528;48.086;16.282;2023-12-29T02:36:08;6.80;;;6.33;;
12921;SDS011;6528;48.086;16.282;2023-12-29T02:38:36;8.10;;;7.50;;
12921;SDS011;6528;48.086;16.282;2023-12-29T02:41:04;8.10;;;7.50;;
12921;SDS011;6528;48.086;16.282;2023-12-29T02:43:32;7.83;;;7.17;;
12921;SDS011;6528;48.086;16.282;2023-12-29T02:46:00;7.93;;;7.23;;
12921;SDS011;6528;48.086;16.282;2023-12-29T02:48:28;8.67;;;7.97;;
12921;SDS011;6528;48.086;16.282;2023-12-29T02:50:56;6.80;;;6.20;;
12921;SDS011;6528;48.086;16.282;2023-12-29T02:53:23;6.93;;;6.30;;
12921;SDS011;6528;48.086;16.282;2023-12-29T02:55:50;6.80;;;6.23;;
12921;SDS011;6528;48.086;16.282;2023-12-29T02:58:18;7.47;;;6.77;;
12921;SDS011;6528;48.086;16.282;2023-12-29T03:00:46;7.23;;;6.50;;
12921;SDS011;6528;48.086;16.282;2023-12-29T03:03:13;7.83;;;7.13;;
12921;SDS011;6528;48.086;16.282;2023-12-29T03:05:41;7.33;;;6.63;;
12921;SDS011;6528;48.086;16.282;2023-12-29T03:08:09;7.17;;;6.50;;
12921;SDS011;6528;48.086;16.282;2023-12-29T03:10:36;7.47;;;6.93;;
12921;SDS011;6528;48.086;16.282;2023-12-29T03:13:04;7.10;;;6.50;;
12921;SDS011;6528;48.086;16.282;2023-12-29T03:15:32;6.40;;;5.90;;
12921;SDS011;6528;48.086;16.282;2023-12-29T03:17:59;6.70;;;6.27;;
12921;SDS011;6528;48.086;16.282;2023-12-29T03:20:27;6.60;;;6.10;;
12921;SDS011;6528;48.086;16.282;2023-12-29T03:22:54;7.00;;;6.40;;
12921;SDS011;6528;48.086;16.282;2023-12-29T03:25:22;7.00;;;6.40;;
12921;SDS011;6528;48.086;16.282;2023-12-29T03:27:49;6.70;;;6.13;;
12921;SDS011;6528;48.086;16.282;2023-12-29T03:30:17;6.70;;;6.20;;
12921;SDS011;6528;48.086;16.282;2023-12-29T03:32:45;7.00;;;6.50;;
12921;SDS011;6528;48.086;16.282;2023-12-29T03:35:12;6.97;;;6.47;;
12921;SDS011;6528;48.086;16.282;2023-12-29T03:37:40;6.73;;;6.23;;
12921;SDS011;6528;48.086;16.282;2023-12-29T03:40:08;7.47;;;6.87;;
12921;SDS011;6528;48.086;16.282;2023-12-29T03:42:36;7.03;;;6.37;;
12921;SDS011;6528;48.086;16.282;2023-12-29T03:45:04;7.40;;;6.80;;
12921;SDS011;6528;48.086;16.282;2023-12-29T03:47:31;6.77;;;6.27;;
12921;SDS011;6528;48.086;16.282;2023-12-29T03:49:59;7.23;;;6.73;;
12921;SDS011;6528;48.086;16.282;2023-12-29T03:52:26;6.73;;;6.17;;
12921;SDS011;6528;48.086;16.282;2023-12-29T03:54:54;6.30;;;5.80;;
12921;SDS011;6528;48.086;16.282;2023-12-29T03:57:21;6.30;;;5.80;;
12921;SDS011;6528;48.086;16.282;2023-12-29T03:59:49;7.53;;;7.00;;
12921;SDS011;6528;48.086;16.282;2023-12-29T04:02:16;6.57;;;6.07;;
12921;SDS011;6528;48.086;16.282;2023-12-29T04:04:44;6.23;;;5.63;;
12921;SDS011;6528;48.086;16.282;2023-12-29T04:07:12;7.00;;;6.50;;
12921;SDS011;6528;48.086;16.282;2023-12-29T04:09:40;6.57;;;6.07;;
12921;SDS011;6528;48.086;16.282;2023-12-29T04:12:07;6.87;;;6.13;;
12921;SDS011;6528;48.086;16.282;2023-12-29T04:14:35;6.40;;;5.90;;
12921;SDS011;6528;48.086;16.282;2023-12-29T04:17:03;6.70;;;6.20;;
12921;SDS011;6528;48.086;16.282;2023-12-29T04:19:40;6.87;;;6.27;;
12921;SDS011;6528;48.086;16.282;2023-12-29T04:22:08;7.20;;;6.60;;
12921;SDS011;6528;48.086;16.282;2023-12-29T04:24:37;6.73;;;6.23;;
12921;SDS011;6528;48.086;16.282;2023-12-29T04:27:04;6.30;;;5.80;;
12921;SDS011;6528;48.086;16.282;2023-12-29T04:29:32;6.07;;;5.60;;
12921;SDS011;6528;48.086;16.282;2023-12-29T04:31:59;6.63;;;6.13;;
12921;SDS011;6528;48.086;16.282;2023-12-29T04:34:27;6.73;;;6.13;;
12921;SDS011;6528;48.086;16.282;2023-12-29T04:36:54;6.90;;;6.30;;
12921;SDS011;6528;48.086;16.282;2023-12-29T04:39:22;7.03;;;6.53;;
12921;SDS011;6528;48.086;16.282;2023-12-29T04:41:49;6.90;;;6.37;;
12921;SDS011;6528;48.086;16.282;2023-12-29T04:44:16;6.93;;;6.23;;
12921;SDS011;6528;48.086;16.282;2023-12-29T04:46:44;6.73;;;6.23;;
12921;SDS011;6528;48.086;16.282;2023-12-29T04:49:11;6.40;;;5.90;;
12921;SDS011;6528;48.086;16.282;2023-12-29T04:51:40;6.80;;;6.20;;
12921;SDS011;6528;48.086;16.282;2023-12-29T04:54:08;6.70;;;6.20;;
12921;SDS011;6528;48.086;16.282;2023-12-29T04:56:35;7.10;;;6.47;;
12921;SDS011;6528;48.086;16.282;2023-12-29T04:59:03;7.03;;;6.43;;
12921;SDS011;6528;48.086;16.282;2023-12-29T05:01:30;6.73;;;6.23;;
12921;SDS011;6528;48.086;16.282;2023-12-29T05:03:58;7.57;;;6.97;;
12921;SDS011;6528;48.086;16.282;2023-12-29T05:06:26;6.53;;;6.07;;
12921;SDS011;6528;48.086;16.282;2023-12-29T05:08:53;6.17;;;5.67;;
12921;SDS011;6528;48.086;16.282;2023-12-29T05:11:21;7.30;;;6.67;;
12921;SDS011;6528;48.086;16.282;2023-12-29T05:13:48;6.80;;;6.30;;
12921;SDS011;6528;48.086;16.282;2023-12-29T05:16:16;6.33;;;5.83;;
12921;SDS011;6528;48.086;16.282;2023-12-29T05:18:43;6.77;;;6.30;;
12921;SDS011;6528;48.086;16.282;2023-12-29T05:21:17;6.43;;;5.93;;
12921;SDS011;6528;48.086;16.282;2023-12-29T05:23:46;5.80;;;5.40;;
12921;SDS011;6528;48.086;16.282;2023-12-29T05:26:14;5.77;;;5.37;;
12921;SDS011;6528;48.086;16.282;2023-12-29T05:28:42;6.63;;;6.03;;
12921;SDS011;6528;48.086;16.282;2023-12-29T05:31:09;6.23;;;5.73;;
12921;SDS011;6528;48.086;16.282;2023-12-29T05:33:37;6.27;;;5.77;;
12921;SDS011;6528;48.086;16.282;2023-12-29T05:36:05;6.43;;;5.93;;
12921;SDS011;6528;48.086;16.282;2023-12-29T05:38:37;7.30;;;6.70;;
12921;SDS011;6528;48.086;16.282;2023-12-29T05:41:06;7.40;;;6.13;;
12921;SDS011;6528;48.086;16.282;2023-12-29T05:43:34;6.80;;;6.30;;
12921;SDS011;6528;48.086;16.282;2023-12-29T05:46:01;6.73;;;6.03;;
12921;SDS011;6528;48.086;16.282;2023-12-29T05:48:29;6.60;;;6.00;;
12921;SDS011;6528;48.086;16.282;2023-12-29T05:50:56;5.43;;;5.03;;
12921;SDS011;6528;48.086;16.282;2023-12-29T05:53:24;6.77;;;6.23;;
12921;SDS011;6528;48.086;16.282;2023-12-29T05:55:52;5.93;;;5.43;;
12921;SDS011;6528;48.086;16.282;2023-12-29T05:58:20;6.27;;;5.77;;
12921;SDS011;6528;48.086;16.282;2023-12-29T06:00:47;6.17;;;5.77;;
12921;SDS011;6528;48.086;16.282;2023-12-29T06:03:15;6.70;;;6.10;;
12921;SDS011;6528;48.086;16.282;2023-12-29T06:05:42;7.30;;;6.10;;
12921;SDS011;6528;48.086;16.282;2023-12-29T06:08:12;6.03;;;5.53;;
12921;SDS011;6528;48.086;16.282;2023-12-29T06:10:40;6.97;;;6.37;;
12921;SDS011;6528;48.086;16.282;2023-12-29T06:13:08;6.67;;;6.17;;
12921;SDS011;6528;48.086;16.282;2023-12-29T06:15:36;6.90;;;6.30;;
12921;SDS011;6528;48.086;16.282;2023-12-29T06:18:04;6.93;;;6.00;;
12921;SDS011;6528;48.086;16.282;2023-12-29T06:20:32;11.97;;;6.03;;
12921;SDS011;6528;48.086;16.282;2023-12-29T06:23:01;6.43;;;5.77;;
12921;SDS011;6528;48.086;16.282;2023-12-29T06:25:28;6.40;;;5.80;;
12921;SDS011;6528;48.086;16.282;2023-12-29T06:27:56;7.23;;;5.10;;
12921;SDS011;6528;48.086;16.282;2023-12-29T06:30:24;6.17;;;5.77;;
12921;SDS011;6528;48.086;16.282;2023-12-29T06:32:52;6.03;;;5.50;;
12921;SDS011;6528;48.086;16.282;2023-12-29T06:35:19;6.17;;;5.67;;
12921;SDS011;6528;48.086;16.282;2023-12-29T06:37:47;6.23;;;5.67;;
12921;SDS011;6528;48.086;16.282;2023-12-29T06:40:17;5.57;;;4.97;;
12921;SDS011;6528;48.086;16.282;2023-12-29T06:42:45;5.30;;;4.80;;
12921;SDS011;6528;48.086;16.282;2023-12-29T06:45:12;5.63;;;5.23;;
12921;SDS011;6528;48.086;16.282;2023-12-29T06:47:40;6.40;;;5.40;;
12921;SDS011;6528;48.086;16.282;2023-12-29T06:50:08;5.90;;;5.40;;
12921;SDS011;6528;48.086;16.282;2023-12-29T06:52:39;6.00;;;5.57;;
12921;SDS011;6528;48.086;16.282;2023-12-29T06:55:07;5.43;;;5.03;;
12921;SDS011;6528;48.086;16.282;2023-12-29T06:57:35;5.70;;;5.20;;
12921;SDS011;6528;48.086;16.282;2023-12-29T07:00:03;5.63;;;5.23;;
12921;SDS011;6528;48.086;16.282;2023-12-29T07:02:31;5.50;;;5.10;;
12921;SDS011;6528;48.086;16.282;2023-12-29T07:04:59;5.10;;;4.70;;
12921;SDS011;6528;48.086;16.282;2023-12-29T07:07:26;5.03;;;4.70;;
12921;SDS011;6528;48.086;16.282;2023-12-29T07:09:54;5.40;;;5.00;;
12921;SDS011;6528;48.086;16.282;2023-12-29T07:12:21;5.73;;;5.30;;
12921;SDS011;6528;48.086;16.282;2023-12-29T07:14:49;5.30;;;4.90;;
12921;SDS011;6528;48.086;16.282;2023-12-29T07:17:18;5.27;;;4.87;;
12921;SDS011;6528;48.086;16.282;2023-12-29T07:19:46;5.13;;;4.73;;
12921;SDS011;6528;48.086;16.282;2023-12-29T07:22:14;5.10;;;4.70;;
12921;SDS011;6528;48.086;16.282;2023-12-29T07:24:41;5.00;;;4.67;;
12921;SDS011;6528;48.086;16.282;2023-12-29T07:27:09;5.00;;;4.60;;
12921;SDS011;6528;48.086;16.282;2023-12-29T07:29:37;5.17;;;4.77;;
12921;SDS011;6528;48.086;16.282;2023-12-29T07:32:04;4.70;;;4.40;;
12921;SDS011;6528;48.086;16.282;2023-12-29T07:34:32;5.27;;;4.87;;
12921;SDS011;6528;48.086;16.282;2023-12-29T07:37:01;5.00;;;4.60;;
12921;SDS011;6528;48.086;16.282;2023-12-29T07:39:29;5.30;;;4.90;;
12921;SDS011;6528;48.086;16.282;2023-12-29T07:41:57;5.03;;;4.60;;
12921;SDS011;6528;48.086;16.282;2023-12-29T07:44:24;4.40;;;4.00;;
12921;SDS011;6528;48.086;16.282;2023-12-29T07:46:54;4.37;;;4.07;;
12921;SDS011;6528;48.086;16.282;2023-12-29T07:49:24;4.37;;;4.07;;
12921;SDS011;6528;48.086;16.282;2023-12-29T07:51:53;5.10;;;4.60;;
12921;SDS011;6528;48.086;16.282;2023-12-29T07:54:21;4.13;;;3.90;;
12921;SDS011;6528;48.086;16.282;2023-12-29T07:56:48;4.10;;;3.80;;
12921;SDS011;6528;48.086;16.282;2023-12-29T07:59:17;4.10;;;3.63;;
12921;SDS011;6528;48.086;16.282;2023-12-29T08:01:45;4.50;;;4.10;;
12921;SDS011;6528;48.086;16.282;2023-12-29T08:04:12;4.23;;;3.93;;
12921;SDS011;6528;48.086;16.282;2023-12-29T08:06:41;4.53;;;4.13;;
12921;SDS011;6528;48.086;16.282;2023-12-29T08:09:09;4.27;;;3.97;;
12921;SDS011;6528;48.086;16.282;2023-12-29T08:11:37;4.30;;;3.43;;
12921;SDS011;6528;48.086;16.282;2023-12-29T08:14:05;4.50;;;4.20;;
12921;SDS011;6528;48.086;16.282;2023-12-29T08:16:38;4.53;;;4.13;;
12921;SDS011;6528;48.086;16.282;2023-12-29T08:19:07;4.20;;;3.90;;
12921;SDS011;6528;48.086;16.282;2023-12-29T08:21:37;4.03;;;3.70;;
12921;SDS011;6528;48.086;16.282;2023-12-29T08:24:05;3.83;;;3.63;;
12921;SDS011;6528;48.086;16.282;2023-12-29T08:26:32;4.13;;;3.83;;
12921;SDS011;6528;48.086;16.282;2023-12-29T08:29:00;3.53;;;3.33;;
12921;SDS011;6528;48.086;16.282;2023-12-29T08:31:27;3.77;;;3.47;;
12921;SDS011;6528;48.086;16.282;2023-12-29T08:33:56;4.07;;;3.77;;
12921;SDS011;6528;48.086;16.282;2023-12-29T08:36:24;4.20;;;3.90;;
12921;SDS011;6528;48.086;16.282;2023-12-29T08:38:52;4.40;;;4.00;;
12921;SDS011;6528;48.086;16.282;2023-12-29T08:41:20;3.90;;;3.60;;
12921;SDS011;6528;48.086;16.282;2023-12-29T08:43:47;3.60;;;3.30;;
12921;SDS011;6528;48.086;16.282;2023-12-29T08:46:14;3.97;;;3.67;;
12921;SDS011;6528;48.086;16.282;2023-12-29T08:48:41;4.10;;;3.80;;
12921;SDS011;6528;48.086;16.282;2023-12-29T08:51:08;3.93;;;3.63;;
12921;SDS011;6528;48.086;16.282;2023-12-29T08:53:36;4.07;;;3.77;;
12921;SDS011;6528;48.086;16.282;2023-12-29T08:56:03;3.97;;;3.67;;
12921;SDS011;6528;48.086;16.282;2023-12-29T08:58:32;3.80;;;3.50;;
12921;SDS011;6528;48.086;16.282;2023-12-29T09:00:59;4.50;;;4.10;;
12921;SDS011;6528;48.086;16.282;2023-12-29T09:03:27;3.87;;;3.57;;
12921;SDS011;6528;48.086;16.282;2023-12-29T09:05:55;3.73;;;3.50;;
12921;SDS011;6528;48.086;16.282;2023-12-29T09:08:23;4.20;;;3.90;;
12921;SDS011;6528;48.086;16.282;2023-12-29T09:10:50;4.20;;;3.90;;
12921;SDS011;6528;48.086;16.282;2023-12-29T09:13:18;4.37;;;4.07;;
12921;SDS011;6528;48.086;16.282;2023-12-29T09:15:48;4.33;;;4.03;;
12921;SDS011;6528;48.086;16.282;2023-12-29T09:18:16;4.27;;;3.87;;
12921;SDS011;6528;48.086;16.282;2023-12-29T09:20:44;4.53;;;4.10;;
12921;SDS011;6528;48.086;16.282;2023-12-29T09:23:11;4.00;;;3.70;;
12921;SDS011;6528;48.086;16.282;2023-12-29T09:25:38;4.67;;;4.37;;
12921;SDS011;6528;48.086;16.282;2023-12-29T09:28:07;4.53;;;4.23;;
12921;SDS011;6528;48.086;16.282;2023-12-29T09:30:36;5.17;;;4.67;;
12921;SDS011;6528;48.086;16.282;2023-12-29T09:33:03;5.30;;;4.63;;
12921;SDS011;6528;48.086;16.282;2023-12-29T09:35:31;4.73;;;4.23;;
12921;SDS011;6528;48.086;16.282;2023-12-29T09:38:02;4.70;;;4.30;;
12921;SDS011;6528;48.086;16.282;2023-12-29T09:40:31;5.30;;;3.63;;
12921;SDS011;6528;48.086;16.282;2023-12-29T09:43:00;4.43;;;4.13;;
12921;SDS011;6528;48.086;16.282;2023-12-29T09:45:31;4.37;;;4.07;;
12921;SDS011;6528;48.086;16.282;2023-12-29T09:48:01;4.00;;;3.60;;
12921;SDS011;6528;48.086;16.282;2023-12-29T09:50:30;4.23;;;3.93;;
12921;SDS011;6528;48.086;16.282;2023-12-29T09:52:59;4.70;;;4.40;;
12921;SDS011;6528;48.086;16.282;2023-12-29T09:55:29;3.77;;;3.57;;
12921;SDS011;6528;48.086;16.282;2023-12-29T09:57:58;4.93;;;4.43;;
12921;SDS011;6528;48.086;16.282;2023-12-29T10:00:27;4.27;;;3.97;;
12921;SDS011;6528;48.086;16.282;2023-12-29T10:02:56;4.50;;;4.20;;
12921;SDS011;6528;48.086;16.282;2023-12-29T10:05:24;4.80;;;4.40;;
12921;SDS011;6528;48.086;16.282;2023-12-29T10:07:52;4.20;;;3.90;;
12921;SDS011;6528;48.086;16.282;2023-12-29T10:10:21;3.90;;;3.60;;
12921;SDS011;6528;48.086;16.282;2023-12-29T10:12:51;3.70;;;3.40;;
12921;SDS011;6528;48.086;16.282;2023-12-29T10:18:14;3.73;;;3.53;;
12921;SDS011;6528;48.086;16.282;2023-12-29T10:20:50;3.97;;;3.67;;
12921;SDS011;6528;48.086;16.282;2023-12-29T10:23:32;3.77;;;3.57;;
12921;SDS011;6528;48.086;16.282;2023-12-29T10:26:05;4.30;;;3.70;;
12921;SDS011;6528;48.086;16.282;2023-12-29T10:28:37;4.60;;;4.17;;
12921;SDS011;6528;48.086;16.282;2023-12-29T10:31:05;3.67;;;3.37;;
12921;SDS011;6528;48.086;16.282;2023-12-29T10:33:33;3.90;;;3.60;;
12921;SDS011;6528;48.086;16.282;2023-12-29T10:36:01;4.00;;;3.70;;
12921;SDS011;6528;48.086;16.282;2023-12-29T10:38:30;4.10;;;3.70;;
12921;SDS011;6528;48.086;16.282;2023-12-29T10:43:40;3.60;;;3.30;;
12921;SDS011;6528;48.086;16.282;2023-12-29T10:46:11;3.93;;;3.63;;
12921;SDS011;6528;48.086;16.282;2023-12-29T10:48:39;3.70;;;3.40;;
12921;SDS011;6528;48.086;16.282;2023-12-29T10:51:07;3.50;;;3.30;;
12921;SDS011;6528;48.086;16.282;2023-12-29T10:53:35;3.73;;;3.43;;
12921;SDS011;6528;48.086;16.282;2023-12-29T10:56:17;3.10;;;2.90;;
12921;SDS011;6528;48.086;16.282;2023-12-29T10:59:02;4.03;;;3.73;;
12921;SDS011;6528;48.086;16.282;2023-12-29T11:01:31;3.37;;;3.17;;
12921;SDS011;6528;48.086;16.282;2023-12-29T11:04:01;3.63;;;3.33;;
12921;SDS011;6528;48.086;16.282;2023-12-29T11:06:42;3.60;;;3.30;;
12921;SDS011;6528;48.086;16.282;2023-12-29T11:09:14;3.67;;;3.37;;
12921;SDS011;6528;48.086;16.282;2023-12-29T11:11:54;3.77;;;3.33;;
12921;SDS011;6528;48.086;16.282;2023-12-29T11:14:24;4.17;;;3.87;;
12921;SDS011;6528;48.086;16.282;2023-12-29T11:16:52;3.70;;;3.40;;
12921;SDS011;6528;48.086;16.282;2023-12-29T11:19:21;3.70;;;3.40;;
12921;SDS011;6528;48.086;16.282;2023-12-29T11:21:51;3.80;;;3.50;;
12921;SDS011;6528;48.086;16.282;2023-12-29T11:24:22;3.50;;;3.20;;
12921;SDS011;6528;48.086;16.282;2023-12-29T11:27:03;5.70;;;3.60;;
12921;SDS011;6528;48.086;16.282;2023-12-29T11:29:38;3.40;;;3.10;;
12921;SDS011;6528;48.086;16.282;2023-12-29T11:32:11;4.57;;;3.40;;
12921;SDS011;6528;48.086;16.282;2023-12-29T11:34:48;4.40;;;3.37;;
12921;SDS011;6528;48.086;16.282;2023-12-29T11:40:27;3.83;;;2.87;;
12921;SDS011;6528;48.086;16.282;2023-12-29T11:43:02;3.50;;;3.20;;
12921;SDS011;6528;48.086;16.282;2023-12-29T11:45:35;3.10;;;2.83;;
12921;SDS011;6528;48.086;16.282;2023-12-29T11:48:03;3.37;;;3.13;;
12921;SDS011;6528;48.086;16.282;2023-12-29T11:50:35;3.73;;;3.43;;
12921;SDS011;6528;48.086;16.282;2023-12-29T11:53:05;4.73;;;2.87;;
12921;SDS011;6528;48.086;16.282;2023-12-29T11:55:34;3.20;;;3.00;;
12921;SDS011;6528;48.086;16.282;2023-12-29T11:58:03;3.07;;;2.87;;
12921;SDS011;6528;48.086;16.282;2023-12-29T12:00:41;2.40;;;2.20;;
12921;SDS011;6528;48.086;16.282;2023-12-29T12:03:17;3.50;;;3.20;;
12921;SDS011;6528;48.086;16.282;2023-12-29T12:05:55;3.37;;;3.07;;
12921;SDS011;6528;48.086;16.282;2023-12-29T12:08:37;3.50;;;3.30;;
12921;SDS011;6528;48.086;16.282;2023-12-29T12:13:55;3.70;;;3.40;;
12921;SDS011;6528;48.086;16.282;2023-12-29T12:19:12;3.43;;;2.80;;
12921;SDS011;6528;48.086;16.282;2023-12-29T12:21:40;3.57;;;3.27;;
12921;SDS011;6528;48.086;16.282;2023-12-29T12:24:09;2.90;;;2.70;;
12921;SDS011;6528;48.086;16.282;2023-12-29T12:26:36;3.40;;;3.10;;
12921;SDS011;6528;48.086;16.282;2023-12-29T12:29:04;3.57;;;3.27;;
12921;SDS011;6528;48.086;16.282;2023-12-29T12:31:33;3.30;;;3.10;;
12921;SDS011;6528;48.086;16.282;2023-12-29T12:34:00;3.37;;;2.83;;
12921;SDS011;6528;48.086;16.282;2023-12-29T12:36:28;2.83;;;2.63;;
12921;SDS011;6528;48.086;16.282;2023-12-29T12:38:57;2.80;;;2.60;;
12921;SDS011;6528;48.086;16.282;2023-12-29T12:41:25;3.40;;;3.10;;
12921;SDS011;6528;48.086;16.282;2023-12-29T12:46:39;2.70;;;2.50;;
12921;SDS011;6528;48.086;16.282;2023-12-29T12:49:10;3.83;;;3.17;;
12921;SDS011;6528;48.086;16.282;2023-12-29T12:51:37;3.97;;;2.70;;
12921;SDS011;6528;48.086;16.282;2023-12-29T12:54:04;3.40;;;3.13;;
12921;SDS011;6528;48.086;16.282;2023-12-29T12:56:34;2.73;;;2.53;;
12921;SDS011;6528;48.086;16.282;2023-12-29T12:59:02;2.70;;;2.50;;
12921;SDS011;6528;48.086;16.282;2023-12-29T13:01:29;2.40;;;2.23;;
12921;SDS011;6528;48.086;16.282;2023-12-29T13:04:01;2.37;;;2.27;;
12921;SDS011;6528;48.086;16.282;2023-12-29T13:06:34;2.70;;;2.60;;
12921;SDS011;6528;48.086;16.282;2023-12-29T13:09:07;2.87;;;2.30;;
12921;SDS011;6528;48.086;16.282;2023-12-29T13:11:38;2.50;;;2.40;;
12921;SDS011;6528;48.086;16.282;2023-12-29T13:14:07;2.50;;;2.30;;
12921;SDS011;6528;48.086;16.282;2023-12-29T13:16:35;2.33;;;2.23;;
12921;SDS011;6528;48.086;16.282;2023-12-29T13:19:18;2.60;;;2.40;;
12921;SDS011;6528;48.086;16.282;2023-12-29T13:21:47;1.83;;;1.73;;
12921;SDS011;6528;48.086;16.282;2023-12-29T13:24:16;2.40;;;2.20;;
12921;SDS011;6528;48.086;16.282;2023-12-29T13:26:44;2.33;;;2.23;;
12921;SDS011;6528;48.086;16.282;2023-12-29T13:29:14;2.20;;;2.00;;
12921;SDS011;6528;48.086;16.282;2023-12-29T13:31:41;2.50;;;2.30;;
12921;SDS011;6528;48.086;16.282;2023-12-29T13:34:13;2.03;;;1.93;;
12921;SDS011;6528;48.086;16.282;2023-12-29T13:39:22;2.40;;;2.20;;
12921;SDS011;6528;48.086;16.282;2023-12-29T13:42:12;2.40;;;2.20;;
12921;SDS011;6528;48.086;16.282;2023-12-29T13:44:42;2.30;;;2.20;;
12921;SDS011;6528;48.086;16.282;2023-12-29T13:47:10;2.07;;;1.97;;
12921;SDS011;6528;48.086;16.282;2023-12-29T13:49:38;1.90;;;1.80;;
12921;SDS011;6528;48.086;16.282;2023-12-29T13:52:06;2.50;;;2.30;;
12921;SDS011;6528;48.086;16.282;2023-12-29T13:54:42;3.10;;;1.90;;
12921;SDS011;6528;48.086;16.282;2023-12-29T13:57:10;2.67;;;2.47;;
12921;SDS011;6528;48.086;16.282;2023-12-29T13:59:37;1.93;;;1.83;;
12921;SDS011;6528;48.086;16.282;2023-12-29T14:02:18;2.40;;;2.30;;
12921;SDS011;6528;48.086;16.282;2023-12-29T14:10:33;2.67;;;2.47;;
12921;SDS011;6528;48.086;16.282;2023-12-29T14:13:08;2.43;;;2.23;;
12921;SDS011;6528;48.086;16.282;2023-12-29T14:15:39;2.57;;;2.40;;
12921;SDS011;6528;48.086;16.282;2023-12-29T14:20:41;2.20;;;2.10;;
12921;SDS011;6528;48.086;16.282;2023-12-29T14:23:08;4.30;;;2.43;;
12921;SDS011;6528;48.086;16.282;2023-12-29T14:25:36;2.13;;;1.93;;
12921;SDS011;6528;48.086;16.282;2023-12-29T14:28:13;2.73;;;2.53;;
12921;SDS011;6528;48.086;16.282;2023-12-29T14:30:44;2.10;;;2.00;;
12921;SDS011;6528;48.086;16.282;2023-12-29T14:33:13;2.67;;;2.10;;
12921;SDS011;6528;48.086;16.282;2023-12-29T14:35:40;2.30;;;2.10;;
12921;SDS011;6528;48.086;16.282;2023-12-29T14:38:08;2.40;;;2.20;;
12921;SDS011;6528;48.086;16.282;2023-12-29T14:40:39;2.10;;;2.00;;
12921;SDS011;6528;48.086;16.282;2023-12-29T14:43:07;2.47;;;2.27;;
12921;SDS011;6528;48.086;16.282;2023-12-29T14:45:34;2.40;;;2.20;;
12921;SDS011;6528;48.086;16.282;2023-12-29T14:48:02;5.30;;;2.00;;
12921;SDS011;6528;48.086;16.282;2023-12-29T14:50:31;2.00;;;1.90;;
12921;SDS011;6528;48.086;16.282;2023-12-29T14:52:58;2.07;;;1.97;;
12921;SDS011;6528;48.086;16.282;2023-12-29T14:55:26;2.17;;;2.00;;
12921;SDS011;6528;48.086;16.282;2023-12-29T14:57:53;2.23;;;2.13;;
12921;SDS011;6528;48.086;16.282;2023-12-29T15:00:20;2.70;;;2.10;;
12921;SDS011;6528;48.086;16.282;2023-12-29T15:02:48;2.63;;;2.43;;
12921;SDS011;6528;48.086;16.282;2023-12-29T15:05:15;1.93;;;1.83;;
12921;SDS011;6528;48.086;16.282;2023-12-29T15:07:44;2.00;;;1.90;;
12921;SDS011;6528;48.086;16.282;2023-12-29T15:10:12;2.13;;;2.03;;
12921;SDS011;6528;48.086;16.282;2023-12-29T15:12:39;2.37;;;2.27;;
12921;SDS011;6528;48.086;16.282;2023-12-29T15:15:07;2.00;;;1.80;;
12921;SDS011;6528;48.086;16.282;2023-12-29T15:17:38;1.80;;;1.70;;
12921;SDS011;6528;48.086;16.282;2023-12-29T15:20:06;2.23;;;1.80;;
12921;SDS011;6528;48.086;16.282;2023-12-29T15:22:35;2.20;;;2.00;;
12921;SDS011;6528;48.086;16.282;2023-12-29T15:25:03;2.43;;;1.70;;
12921;SDS011;6528;48.086;16.282;2023-12-29T15:27:31;3.10;;;2.03;;